New Boston, MI (48164)

12:14 AM EST on February 12, 2016 (GMT -0500)
Timber Creek | | Change Station
CLOSE
Current Station
Personal Weather Station
Location: Brownstown Charter Township, MI
Elevation: 615 ft
Nearby Weather Stations

Elev 615 ft 42.13 °N, 83.29 °W | Updated 28 seconds ago

Clear
Clear
12.6 °F
Feels Like 13 °F
N
0.0
Wind Variable Wind from SW
Gusts 0.0 mph

Today
High -- | Low -- °F
--% Chance of Precip.
Yesterday
High -- | Low -- °F
Precip. -- in
Pressure 30.28 in
Visibility 10.0 miles
Clouds Scattered Clouds 4000 ft
Windchill 13 °F
Dew Point 1 °F
Humidity 60%
Rainfall 0.00 in
Snow Depth Not available.
7:34 AM 6:01 PM
Waxing Crescent, 17% visible
METAR KDTW 120453Z 22006KT 10SM SCT040 M09/M14 A3024 RMK AO2 SLP253 T10941144 410501122
Pressure 30.28 in
Visibility 10.0 miles
Clouds Scattered Clouds 4000 ft
Windchill 13 °F
Dew Point 1 °F
Humidity 60%
Rainfall 0.00 in
Snow Depth Not available.
7:34 AM 6:01 PM
Waxing Crescent, 17% visible
METAR KDTW 120453Z 22006KT 10SM SCT040 M09/M14 A3024 RMK AO2 SLP253 T10941144 410501122

10-Day Weather Forecast

Almanac

Astronomy

Feb. 12, 2016 Rise Set
Actual Time
Civil Twilight
Nautical Twilight
Astronomical Twilight
Moon
Length of Visible Light
Length of Day
Tomorrow will be .
, % of the Moon is Illuminated

Today's Extremes

State Highs State Lows

Community

WunderPhotos

Upload Photos

1,892,265 photos uploaded!

WunderBlog® & News

Nearby

Air Quality

  Air Quality AQ Index Pollutant
Not available.

Snow Depth

Station Depth Elevation

Earthquake Activity

City Distance Mag. Time & Date
Minimum magnitude displayed is 2.5.

Coastal Water Temperatures

Place Temperature

Stations

Nearby Weather Stations

Station Location Temp. Windchill Dew Point Humidity Wind Precip. Elev Updated Type
                   

Watches & Warnings

There are currently no watches in effect.